createdAt,value
2023-05-20T00:02:37.912Z,72.58
2023-05-20T00:05:13.802Z,72.71
2023-05-20T00:07:32.971Z,72.95
2023-05-20T00:10:08.511Z,73.47
2023-05-20T00:12:45.121Z,73.64
2023-05-20T00:15:18.655Z,73.85
2023-05-20T00:17:47.221Z,74.00
2023-05-20T00:20:15.787Z,73.91
2023-05-20T00:22:50.131Z,73.98
2023-05-20T00:25:23.870Z,74.26
2023-05-20T00:27:43.475Z,74.30
2023-05-20T00:30:05.071Z,74.48
2023-05-20T00:32:39.942Z,74.53
2023-05-20T00:35:07.464Z,74.47
2023-05-20T00:37:29.979Z,74.48
2023-05-20T00:39:50.068Z,75.07
2023-05-20T00:42:22.947Z,74.96
2023-05-20T00:44:48.489Z,74.91
2023-05-20T00:47:07.858Z,75.40
2023-05-20T00:49:27.882Z,75.34
2023-05-20T00:51:54.630Z,75.23
2023-05-20T00:54:21.606Z,75.16
2023-05-20T00:56:51.810Z,75.22
2023-05-20T00:59:12.089Z,75.39
2023-05-20T01:01:38.112Z,75.28
2023-05-20T01:04:07.591Z,75.62
2023-05-20T01:06:44.143Z,75.73
2023-05-20T01:09:19.478Z,75.30
2023-05-20T01:11:48.217Z,75.05
2023-05-20T01:14:26.667Z,74.99
2023-05-20T01:16:49.250Z,74.73
2023-05-20T01:19:31.050Z,74.50
2023-05-20T01:22:09.020Z,74.01
2023-05-20T01:24:37.642Z,73.92
2023-05-20T01:27:13.200Z,74.37
2023-05-20T01:32:16.106Z,74.51
2023-05-20T01:34:37.392Z,74.37
2023-05-20T01:37:13.906Z,74.04
2023-05-20T01:39:37.548Z,74.37
2023-05-20T01:41:57.590Z,73.77
2023-05-20T01:44:19.927Z,74.12
2023-05-20T01:46:52.097Z,74.00
2023-05-20T01:49:11.516Z,74.10
2023-05-20T01:51:39.176Z,74.60
2023-05-20T01:54:11.598Z,74.25
2023-05-20T01:56:33.167Z,74.48
2023-05-20T01:58:57.477Z,74.41
2023-05-20T02:01:25.841Z,74.55
2023-05-20T02:03:45.290Z,74.54
2023-05-20T02:06:05.257Z,75.03
2023-05-20T02:08:36.934Z,75.29
2023-05-20T02:11:12.209Z,75.55
2023-05-20T02:13:42.985Z,75.58
2023-05-20T02:16:10.021Z,75.78
2023-05-20T02:18:31.600Z,75.74
2023-05-20T02:20:58.531Z,75.97
2023-05-20T02:23:34.930Z,76.08
2023-05-20T02:25:54.660Z,76.08
2023-05-20T02:28:24.371Z,76.19
2023-05-20T02:30:52.241Z,76.19
2023-05-20T02:33:18.791Z,76.26
2023-05-20T02:35:46.679Z,76.33
2023-05-20T02:38:20.763Z,76.51
2023-05-20T02:40:50.296Z,76.43
2023-05-20T02:43:24.654Z,76.46
2023-05-20T02:45:48.086Z,76.73
2023-05-20T02:48:10.406Z,76.76
2023-05-20T02:50:27.979Z,76.92
2023-05-20T02:52:50.992Z,76.73
2023-05-20T02:55:17.432Z,77.17
2023-05-20T02:57:49.770Z,76.99
2023-05-20T03:00:16.213Z,77.48
2023-05-20T03:02:36.168Z,77.38
2023-05-20T03:05:05.180Z,77.48
2023-05-20T03:07:30.601Z,77.51
2023-05-20T03:10:04.203Z,77.46
2023-05-20T03:12:22.292Z,77.86
2023-05-20T03:14:46.679Z,77.77
2023-05-20T03:17:08.219Z,77.90
2023-05-20T03:19:38.200Z,78.06
2023-05-20T03:21:56.912Z,78.41
2023-05-20T03:24:19.330Z,78.32
2023-05-20T03:26:44.203Z,78.38
2023-05-20T03:29:10.159Z,78.37
2023-05-20T03:31:29.567Z,78.42
2023-05-20T03:33:54.259Z,78.60
2023-05-20T03:36:15.332Z,79.18
2023-05-20T03:38:42.475Z,79.07
2023-05-20T03:41:17.252Z,78.97
2023-05-20T03:43:37.602Z,79.28
2023-05-20T03:46:02.017Z,79.67
2023-05-20T03:48:37.115Z,79.56
2023-05-20T03:51:05.020Z,79.72
2023-05-20T03:53:34.929Z,79.80
2023-05-20T03:55:53.816Z,79.68
2023-05-20T03:58:23.351Z,79.75
2023-05-20T04:00:50.756Z,79.79
2023-05-20T04:03:14.739Z,79.73
2023-05-20T04:05:51.793Z,79.75
2023-05-20T04:08:23.470Z,79.88
2023-05-20T04:10:50.877Z,79.85
2023-05-20T04:13:26.477Z,80.10
2023-05-20T04:16:01.302Z,80.20
2023-05-20T04:18:35.641Z,80.19
2023-05-20T04:21:11.890Z,80.41
2023-05-20T04:23:46.708Z,80.58
2023-05-20T04:26:14.527Z,80.58
2023-05-20T04:28:45.320Z,80.56
2023-05-20T04:31:22.059Z,80.56
2023-05-20T04:33:57.238Z,80.95
2023-05-20T04:36:32.469Z,80.85
2023-05-20T04:39:07.023Z,80.73
2023-05-20T04:41:36.545Z,81.14
2023-05-20T04:44:31.906Z,81.03
2023-05-20T04:46:57.581Z,81.38
2023-05-20T04:49:32.446Z,81.23
2023-05-20T04:51:56.568Z,81.23
2023-05-20T04:54:30.595Z,81.22
2023-05-20T04:56:50.220Z,81.37
2023-05-20T04:59:16.044Z,81.69
2023-05-20T05:01:33.723Z,81.46
2023-05-20T05:04:08.277Z,81.49
2023-05-20T05:06:33.123Z,81.52
2023-05-20T05:09:03.107Z,81.66
2023-05-20T05:11:30.876Z,81.84
2023-05-20T05:13:56.311Z,81.78
2023-05-20T05:16:26.840Z,81.77
2023-05-20T05:19:01.739Z,81.91
2023-05-20T05:21:34.571Z,81.78
2023-05-20T05:24:11.012Z,81.91
2023-05-20T05:26:44.882Z,81.80
2023-05-20T05:29:21.347Z,81.65
2023-05-20T05:31:50.661Z,81.70
2023-05-20T05:34:11.228Z,81.76
2023-05-20T05:36:32.597Z,82.03
2023-05-20T05:39:08.239Z,82.00
2023-05-20T05:41:29.848Z,81.94
2023-05-20T05:43:56.373Z,81.94
2023-05-20T05:46:36.887Z,81.76
2023-05-20T05:49:12.754Z,81.68
2023-05-20T05:51:47.938Z,81.61
2023-05-20T05:54:22.466Z,81.84
2023-05-20T05:56:49.108Z,81.88
2023-05-20T05:59:23.899Z,81.95
2023-05-20T06:02:15.016Z,81.97
2023-05-20T06:04:47.984Z,82.00
2023-05-20T06:07:26.617Z,82.06
2023-05-20T06:09:55.076Z,82.09
2023-05-20T06:12:29.913Z,82.08
2023-05-20T06:15:04.849Z,82.22
2023-05-20T06:17:39.166Z,82.34
2023-05-20T06:20:08.190Z,82.39
2023-05-20T06:22:37.214Z,82.46
2023-05-20T06:25:05.521Z,82.35
2023-05-20T06:27:34.432Z,82.44
2023-05-20T06:30:09.709Z,82.29
2023-05-20T06:32:44.436Z,82.60
2023-05-20T06:35:19.068Z,82.63
2023-05-20T06:37:53.936Z,82.64
2023-05-20T06:40:28.412Z,82.79
2023-05-20T06:43:04.305Z,82.96
2023-05-20T06:45:54.378Z,82.86
2023-05-20T06:48:35.544Z,83.26
2023-05-20T06:51:09.941Z,83.41
2023-05-20T06:53:56.058Z,83.66
2023-05-20T06:56:30.836Z,83.69
2023-05-20T06:59:09.272Z,83.57
2023-05-20T07:01:38.474Z,83.67
2023-05-20T07:04:13.913Z,83.59
2023-05-20T07:06:35.979Z,83.63
2023-05-20T07:09:02.508Z,83.61
2023-05-20T07:11:29.410Z,83.65
2023-05-20T07:13:52.297Z,83.88
2023-05-20T07:16:24.328Z,83.93
2023-05-20T07:18:48.433Z,83.90
2023-05-20T07:21:16.316Z,84.05
2023-05-20T07:23:50.519Z,84.14
2023-05-20T07:26:18.696Z,84.03
2023-05-20T07:28:53.387Z,84.12
2023-05-20T07:31:30.147Z,84.33
2023-05-20T07:33:56.175Z,84.28
2023-05-20T07:36:18.220Z,84.28
2023-05-20T07:38:36.367Z,84.41
2023-05-20T07:41:01.997Z,84.54
2023-05-20T07:43:28.226Z,84.56
2023-05-20T07:46:06.420Z,84.59
2023-05-20T07:48:33.072Z,84.67
2023-05-20T07:51:07.828Z,84.54
2023-05-20T07:53:28.548Z,84.50
2023-05-20T07:56:05.239Z,84.62
2023-05-20T07:58:26.765Z,84.54
2023-05-20T08:01:02.474Z,84.36
2023-05-20T08:03:25.330Z,84.50
2023-05-20T08:06:09.969Z,84.25
2023-05-20T08:08:30.158Z,84.35
2023-05-20T08:10:52.348Z,84.40
2023-05-20T08:13:28.172Z,84.41
2023-05-20T08:16:05.228Z,84.34
2023-05-20T08:18:40.899Z,84.49
2023-05-20T08:21:17.039Z,84.52
2023-05-20T08:23:52.275Z,84.22
2023-05-20T08:26:27.997Z,84.18
2023-05-20T08:29:01.893Z,84.54
2023-05-20T08:31:22.933Z,84.46
2023-05-20T08:33:59.695Z,84.40
2023-05-20T08:36:22.797Z,84.33
2023-05-20T08:38:58.374Z,84.45
2023-05-20T08:41:23.795Z,84.33
2023-05-20T08:44:00.898Z,84.26
2023-05-20T08:46:39.858Z,84.15
2023-05-20T08:49:13.809Z,84.15
2023-05-20T08:51:48.493Z,84.26
2023-05-20T08:54:17.986Z,84.21
2023-05-20T08:56:47.053Z,84.13
2023-05-20T08:59:24.010Z,84.27
2023-05-20T09:01:59.450Z,84.18
2023-05-20T09:04:33.399Z,84.35
2023-05-20T09:07:00.935Z,84.24
2023-05-20T09:09:36.887Z,84.32
2023-05-20T09:12:13.579Z,84.39
2023-05-20T09:14:40.325Z,84.51
2023-05-20T09:16:59.292Z,84.42
2023-05-20T09:19:25.573Z,84.42
2023-05-20T09:21:58.021Z,84.46
2023-05-20T09:24:32.268Z,84.55
2023-05-20T09:26:58.649Z,84.49
2023-05-20T09:29:30.587Z,84.49
2023-05-20T09:31:59.748Z,84.49
2023-05-20T09:34:21.124Z,84.57
2023-05-20T09:36:42.908Z,84.59
2023-05-20T09:39:11.576Z,84.54
2023-05-20T09:41:56.914Z,84.53
2023-05-20T09:44:33.745Z,84.64
2023-05-20T09:47:10.754Z,84.58
2023-05-20T09:49:44.993Z,84.52
2023-05-20T09:52:15.819Z,84.41
2023-05-20T09:54:48.169Z,84.36
2023-05-20T09:57:22.668Z,84.52
2023-05-20T09:59:57.104Z,84.54
2023-05-20T10:02:21.205Z,84.59
2023-05-20T10:04:55.321Z,84.67
2023-05-20T10:07:56.489Z,84.64
2023-05-20T10:10:40.581Z,84.51
2023-05-20T10:13:39.310Z,84.69
2023-05-20T10:16:13.185Z,84.66
2023-05-20T10:18:51.305Z,84.75
2023-05-20T10:21:28.982Z,84.74
2023-05-20T10:24:13.022Z,84.79
2023-05-20T10:26:48.523Z,84.81
2023-05-20T10:29:25.601Z,84.88
2023-05-20T10:31:57.055Z,84.83
2023-05-20T10:34:26.302Z,84.69
2023-05-20T10:37:09.584Z,84.72
2023-05-20T10:39:43.667Z,84.54
2023-05-20T10:42:20.072Z,84.65
2023-05-20T10:44:54.797Z,84.73
2023-05-20T10:47:31.138Z,84.66
2023-05-20T10:49:59.339Z,84.55
2023-05-20T10:52:36.131Z,84.34
2023-05-20T10:55:06.302Z,84.42
2023-05-20T10:57:33.775Z,84.42
2023-05-20T11:00:02.367Z,84.54
2023-05-20T11:02:37.846Z,84.50
2023-05-20T11:04:56.442Z,84.58
2023-05-20T11:07:27.858Z,84.41
2023-05-20T11:10:02.300Z,84.34
2023-05-20T11:12:24.630Z,84.48
2023-05-20T11:14:55.364Z,84.49
2023-05-20T11:17:25.646Z,84.54
2023-05-20T11:19:57.052Z,84.61
2023-05-20T11:22:16.392Z,84.66
2023-05-20T11:24:43.177Z,84.52
2023-05-20T11:27:18.738Z,84.48
2023-05-20T11:29:57.413Z,84.47
2023-05-20T11:32:31.916Z,84.55
2023-05-20T11:35:07.660Z,84.58
2023-05-20T11:37:30.846Z,84.65
2023-05-20T11:39:52.833Z,84.64
2023-05-20T11:42:23.601Z,84.74
2023-05-20T11:44:49.907Z,84.61
2023-05-20T11:47:33.628Z,84.56
2023-05-20T11:49:55.771Z,84.50
2023-05-20T11:52:32.021Z,84.67
2023-05-20T11:55:09.111Z,84.68
2023-05-20T11:57:46.377Z,84.73
2023-05-20T12:00:19.905Z,84.71
2023-05-20T12:02:54.911Z,84.77
2023-05-20T12:05:28.640Z,84.94
2023-05-20T12:08:03.160Z,85.00
2023-05-20T12:10:40.218Z,85.14
2023-05-20T12:13:14.587Z,85.17
2023-05-20T12:15:48.926Z,85.34
2023-05-20T12:18:24.593Z,85.35
2023-05-20T12:20:46.351Z,85.26
2023-05-20T12:23:14.923Z,85.41
2023-05-20T12:25:42.704Z,85.49
2023-05-20T12:28:09.317Z,85.53
2023-05-20T12:30:45.206Z,85.59
2023-05-20T12:33:21.792Z,85.72
2023-05-20T12:35:48.069Z,85.63
2023-05-20T12:38:22.249Z,85.59
2023-05-20T12:40:56.762Z,85.66
2023-05-20T12:43:25.719Z,85.51
2023-05-20T12:46:01.786Z,85.53
2023-05-20T12:48:32.501Z,85.71
2023-05-20T12:51:07.046Z,85.68
2023-05-20T12:53:34.577Z,85.78
2023-05-20T12:56:08.965Z,85.79
2023-05-20T12:58:32.826Z,85.82
2023-05-20T13:00:56.529Z,85.87
2023-05-20T13:03:16.356Z,86.07
2023-05-20T13:05:52.295Z,86.20
2023-05-20T13:08:19.828Z,86.12
2023-05-20T13:10:39.374Z,86.26
2023-05-20T13:13:01.594Z,86.25
2023-05-20T13:15:27.463Z,86.55
2023-05-20T13:17:49.763Z,86.56
2023-05-20T13:22:53.777Z,86.81
2023-05-20T13:25:22.935Z,86.84
2023-05-20T13:27:57.300Z,86.80
2023-05-20T13:30:33.847Z,86.97
2023-05-20T13:33:04.830Z,86.99
2023-05-20T13:35:30.910Z,87.07
2023-05-20T13:37:50.569Z,87.11
2023-05-20T13:40:25.533Z,87.16
2023-05-20T13:42:47.177Z,87.44
2023-05-20T13:45:19.098Z,87.54
2023-05-20T13:47:52.863Z,87.68
2023-05-20T13:50:27.920Z,87.49
2023-05-20T13:52:55.690Z,87.57
2023-05-20T13:55:32.929Z,87.81
2023-05-20T13:58:00.712Z,87.91
2023-05-20T14:00:30.216Z,87.95
2023-05-20T14:02:58.138Z,87.88
2023-05-20T14:05:29.737Z,88.08
2023-05-20T14:08:05.353Z,88.21
2023-05-20T14:10:34.659Z,88.18
2023-05-20T14:13:04.227Z,88.15
2023-05-20T14:15:41.174Z,88.11
2023-05-20T14:18:14.556Z,88.26
2023-05-20T14:20:31.044Z,88.33
2023-05-20T14:23:03.090Z,88.21
2023-05-20T14:25:31.100Z,87.68
2023-05-20T14:27:58.728Z,87.75
2023-05-20T14:30:19.624Z,88.17
2023-05-20T14:32:56.173Z,88.39
2023-05-20T14:35:30.230Z,88.07
2023-05-20T14:37:51.304Z,87.97
2023-05-20T14:40:13.367Z,87.96
2023-05-20T14:42:48.144Z,87.86
2023-05-20T14:45:11.003Z,87.79
2023-05-20T14:47:37.545Z,88.02
2023-05-20T14:50:06.461Z,88.08
2023-05-20T14:52:36.617Z,88.27
2023-05-20T14:55:14.962Z,88.40
2023-05-20T14:57:41.511Z,88.01
2023-05-20T15:00:11.227Z,88.08
2023-05-20T15:02:35.262Z,88.32
2023-05-20T15:04:55.994Z,88.26
2023-05-20T15:07:29.848Z,88.86
2023-05-20T15:09:57.936Z,89.11
2023-05-20T15:12:32.117Z,89.04
2023-05-20T15:15:03.745Z,88.95
2023-05-20T15:17:38.296Z,88.52
2023-05-20T15:20:06.352Z,88.29
2023-05-20T15:22:42.622Z,87.99
2023-05-20T15:25:16.762Z,87.88
2023-05-20T15:27:39.153Z,88.06
2023-05-20T15:29:59.519Z,88.41
2023-05-20T15:32:29.128Z,88.61
2023-05-20T15:34:54.994Z,88.69
2023-05-20T15:37:30.531Z,88.82
2023-05-20T15:39:51.065Z,88.26
2023-05-20T15:42:26.328Z,88.25
2023-05-20T15:44:53.239Z,88.00
2023-05-20T15:47:27.136Z,87.63
2023-05-20T15:50:03.342Z,87.45
2023-05-20T15:52:38.152Z,87.21
2023-05-20T15:55:13.991Z,87.89
2023-05-20T15:57:53.451Z,87.50
2023-05-20T16:00:23.991Z,87.38
2023-05-20T16:02:52.012Z,86.73
2023-05-20T16:05:11.545Z,86.13
2023-05-20T16:07:47.884Z,85.96
2023-05-20T16:10:17.379Z,85.56
2023-05-20T16:12:48.116Z,85.23
2023-05-20T16:15:18.275Z,85.31
2023-05-20T16:17:46.614Z,85.43
2023-05-20T16:20:21.264Z,85.47
2023-05-20T16:22:55.650Z,85.18
2023-05-20T16:25:20.914Z,85.14
2023-05-20T16:27:43.377Z,85.45
2023-05-20T16:30:10.664Z,85.82
2023-05-20T16:32:46.496Z,85.77
2023-05-20T16:35:22.901Z,85.52
2023-05-20T16:37:58.123Z,85.29
2023-05-20T16:40:32.428Z,84.47
2023-05-20T16:43:08.155Z,84.65
2023-05-20T16:45:27.744Z,85.10
2023-05-20T16:47:53.868Z,84.71
2023-05-20T16:50:29.870Z,84.08
2023-05-20T16:52:57.842Z,84.71
2023-05-20T16:55:22.615Z,84.59
2023-05-20T16:57:58.055Z,84.04
2023-05-20T17:00:25.700Z,84.18
2023-05-20T17:02:58.727Z,83.70
2023-05-20T17:05:20.795Z,82.44
2023-05-20T17:07:42.287Z,84.34
2023-05-20T17:10:09.412Z,82.45
2023-05-20T17:12:45.657Z,82.26
2023-05-20T17:15:18.858Z,80.82
2023-05-20T17:17:42.313Z,81.28
2023-05-20T17:20:07.830Z,81.35
2023-05-20T17:22:42.615Z,81.66
2023-05-20T17:25:17.022Z,81.87
2023-05-20T17:27:38.403Z,82.21
2023-05-20T17:30:03.828Z,82.68
2023-05-20T17:32:24.251Z,82.85
2023-05-20T17:34:58.336Z,83.25
2023-05-20T17:37:33.276Z,83.46
2023-05-20T17:40:08.890Z,83.39
2023-05-20T17:42:26.840Z,83.03
2023-05-20T17:45:00.849Z,83.09
2023-05-20T17:47:29.749Z,82.92
2023-05-20T17:49:51.253Z,83.02
2023-05-20T17:52:16.607Z,82.71
2023-05-20T17:54:50.706Z,81.92
2023-05-20T17:57:18.028Z,82.98
2023-05-20T17:59:42.754Z,82.69
2023-05-20T18:02:10.360Z,82.80
2023-05-20T18:04:36.065Z,83.24
2023-05-20T18:06:53.138Z,83.18
2023-05-20T18:09:14.771Z,83.28
2023-05-20T18:11:48.933Z,82.87
2023-05-20T18:14:24.100Z,82.78
2023-05-20T18:16:43.647Z,83.20
2023-05-20T18:19:04.558Z,83.41
2023-05-20T18:21:31.116Z,83.23
2023-05-20T18:24:05.372Z,82.90
2023-05-20T18:26:40.529Z,83.02
2023-05-20T18:29:04.829Z,82.49
2023-05-20T18:31:31.487Z,82.42
2023-05-20T18:33:52.787Z,82.45
2023-05-20T18:36:26.050Z,82.20
2023-05-20T18:38:51.950Z,82.20
2023-05-20T18:41:35.335Z,81.94
2023-05-20T18:44:13.741Z,81.26
2023-05-20T18:46:36.429Z,81.06
2023-05-20T18:49:11.467Z,80.98
2023-05-20T18:51:47.738Z,81.26
2023-05-20T18:54:07.796Z,81.65
2023-05-20T18:56:29.800Z,81.99
2023-05-20T18:58:56.281Z,81.32
2023-05-20T19:01:20.426Z,80.53
2023-05-20T19:03:54.583Z,80.63
2023-05-20T19:06:23.428Z,79.22
2023-05-20T19:08:56.913Z,79.56
2023-05-20T19:11:15.200Z,79.73
2023-05-20T19:13:36.114Z,79.58
2023-05-20T19:15:55.545Z,80.22
2023-05-20T19:18:22.611Z,79.88
2023-05-20T19:20:51.692Z,80.17
2023-05-20T19:23:12.126Z,80.10
2023-05-20T19:25:40.361Z,78.96
2023-05-20T19:28:06.503Z,78.39
2023-05-20T19:30:28.706Z,78.54
2023-05-20T19:33:03.187Z,78.78
2023-05-20T19:35:38.888Z,79.15
2023-05-20T19:37:58.054Z,79.93
2023-05-20T19:40:33.624Z,79.75
2023-05-20T19:42:54.519Z,79.88
2023-05-20T19:45:16.977Z,79.80
2023-05-20T19:47:44.280Z,79.65
2023-05-20T19:50:13.509Z,79.46
2023-05-20T19:52:45.496Z,78.55
2023-05-20T19:55:11.697Z,78.57
2023-05-20T19:57:34.842Z,78.21
2023-05-20T19:59:56.693Z,78.22
2023-05-20T20:02:24.597Z,77.35
2023-05-20T20:04:49.582Z,76.86
2023-05-20T20:07:10.605Z,77.48
2023-05-20T20:09:43.526Z,77.13
2023-05-20T20:12:10.412Z,76.44
2023-05-20T20:14:31.919Z,76.02
2023-05-20T20:16:51.629Z,76.10
2023-05-20T20:19:12.859Z,76.42
2023-05-20T20:21:37.417Z,76.88
2023-05-20T20:24:02.515Z,77.30
2023-05-20T20:26:37.179Z,78.17
2023-05-20T20:29:01.700Z,78.36
2023-05-20T20:31:37.195Z,78.31
2023-05-20T20:34:13.906Z,78.79
2023-05-20T20:36:48.860Z,78.32
2023-05-20T20:39:10.246Z,78.16
2023-05-20T20:41:31.126Z,78.17
2023-05-20T20:43:51.668Z,77.76
2023-05-20T20:46:16.239Z,78.57
2023-05-20T20:48:50.098Z,78.34
2023-05-20T20:51:18.084Z,78.67
2023-05-20T20:53:44.129Z,77.37
2023-05-20T20:56:11.398Z,78.33
2023-05-20T20:58:36.262Z,77.58
2023-05-20T21:00:55.837Z,77.02
2023-05-20T21:03:47.070Z,75.89
2023-05-20T21:06:14.127Z,76.01
2023-05-20T21:08:49.219Z,75.98
2023-05-20T21:11:07.915Z,76.35
2023-05-20T21:13:41.542Z,75.39
2023-05-20T21:16:13.131Z,76.11
2023-05-20T21:18:47.987Z,75.00
2023-05-20T21:21:23.909Z,75.09
2023-05-20T21:23:45.861Z,75.57
2023-05-20T21:26:11.768Z,74.53
2023-05-20T21:28:35.010Z,73.24
2023-05-20T21:30:56.450Z,73.29
2023-05-20T21:33:26.455Z,73.76
2023-05-20T21:35:51.147Z,74.01
2023-05-20T21:38:09.191Z,73.86
2023-05-20T21:40:30.383Z,73.18
2023-05-20T21:42:58.748Z,73.08
2023-05-20T21:45:25.186Z,72.87
2023-05-20T21:47:54.236Z,72.86
2023-05-20T21:50:22.379Z,72.47
2023-05-20T21:52:48.932Z,72.60
2023-05-20T21:55:08.985Z,72.75
2023-05-20T21:57:33.472Z,73.45
2023-05-20T22:00:00.936Z,73.43
2023-05-20T22:02:18.752Z,73.44
2023-05-20T22:04:52.870Z,73.51
2023-05-20T22:07:22.013Z,74.49
2023-05-20T22:09:53.725Z,74.79
2023-05-20T22:12:21.729Z,73.77
2023-05-20T22:14:55.949Z,72.20
2023-05-20T22:17:16.097Z,73.38
2023-05-20T22:19:38.922Z,72.91
2023-05-20T22:22:05.306Z,72.99
2023-05-20T22:24:39.529Z,71.95
2023-05-20T22:27:15.751Z,71.96
2023-05-20T22:29:50.450Z,71.79
2023-05-20T22:32:15.380Z,72.33
2023-05-20T22:34:35.463Z,73.06
2023-05-20T22:36:59.226Z,72.49
2023-05-20T22:39:22.984Z,72.76
2023-05-20T22:41:56.523Z,72.84
2023-05-20T22:44:30.629Z,72.79
2023-05-20T22:46:50.488Z,72.95
2023-05-20T22:49:14.279Z,73.10
2023-05-20T22:51:42.812Z,73.20
2023-05-20T22:54:18.761Z,72.78
2023-05-20T22:56:55.681Z,72.89
2023-05-20T22:59:32.256Z,72.56
2023-05-20T23:02:07.952Z,72.49
2023-05-20T23:04:34.151Z,72.90
2023-05-20T23:07:01.310Z,73.05
2023-05-20T23:09:20.965Z,72.23
2023-05-20T23:11:48.809Z,72.33
2023-05-20T23:14:22.852Z,72.29
2023-05-20T23:16:45.674Z,72.73
2023-05-20T23:19:13.395Z,72.59
2023-05-20T23:21:47.898Z,72.72
2023-05-20T23:24:09.213Z,73.04
2023-05-20T23:26:42.120Z,72.65
2023-05-20T23:29:13.660Z,72.37
2023-05-20T23:31:50.751Z,72.84
2023-05-20T23:34:18.361Z,72.95
2023-05-20T23:36:43.077Z,72.54
2023-05-20T23:39:01.219Z,72.34
2023-05-20T23:41:25.661Z,72.10
2023-05-20T23:43:52.864Z,72.26
2023-05-20T23:46:28.250Z,72.28
2023-05-20T23:49:01.493Z,72.33
2023-05-20T23:51:22.720Z,72.42
2023-05-20T23:53:58.719Z,72.74
2023-05-20T23:56:28.068Z,72.86
2023-05-20T23:59:02.343Z,73.04
